createdAt,value
2019-03-27T00:01:46.287Z,2.90
2019-03-27T00:04:18.131Z,2.50
2019-03-27T00:06:48.856Z,3.17
2019-03-27T00:09:19.715Z,3.20
2019-03-27T00:11:50.543Z,3.23
2019-03-27T00:14:21.660Z,3.00
2019-03-27T00:16:52.719Z,3.50
2019-03-27T00:19:23.900Z,2.70
2019-03-27T00:21:55.740Z,3.33
2019-03-27T00:39:34.915Z,2.97
2019-03-27T00:42:05.955Z,2.90
2019-03-27T00:44:37.070Z,2.63
2019-03-27T00:47:07.802Z,3.10
2019-03-27T00:49:38.674Z,2.70
2019-03-27T00:52:09.446Z,3.20
2019-03-27T00:54:40.226Z,3.40
2019-03-27T00:57:11.017Z,2.80
2019-03-27T00:59:43.209Z,3.17
2019-03-27T01:02:14.408Z,3.37
2019-03-27T01:04:45.664Z,3.30
2019-03-27T01:07:16.395Z,3.20
2019-03-27T01:09:47.890Z,3.10
2019-03-27T01:12:19.162Z,3.03
2019-03-27T01:14:49.951Z,3.30
2019-03-27T01:17:20.779Z,3.30
2019-03-27T01:19:52.064Z,3.53
2019-03-27T01:22:23.190Z,3.67
2019-03-27T01:24:54.766Z,4.17
2019-03-27T01:27:26.000Z,4.00
2019-03-27T01:29:57.244Z,3.83
2019-03-27T01:32:28.286Z,3.97
2019-03-27T01:34:59.629Z,3.97
2019-03-27T01:37:30.737Z,4.10
2019-03-27T01:40:01.821Z,4.03
2019-03-27T01:42:33.335Z,4.00
2019-03-27T01:45:04.250Z,3.57
2019-03-27T01:47:35.554Z,3.47
2019-03-27T01:50:07.689Z,3.53
2019-03-27T01:52:38.431Z,3.77
2019-03-27T01:55:10.706Z,3.50
2019-03-27T01:57:41.473Z,4.00
2019-03-27T02:00:14.048Z,3.90
2019-03-27T02:02:46.214Z,3.80
2019-03-27T02:05:19.410Z,4.07
2019-03-27T02:07:50.241Z,3.93
2019-03-27T02:10:21.143Z,3.70
2019-03-27T02:12:51.921Z,3.70
2019-03-27T02:15:22.766Z,3.50
2019-03-27T02:17:53.655Z,3.50
2019-03-27T02:20:24.413Z,3.60
2019-03-27T02:22:56.083Z,4.05
2019-03-27T02:25:27.309Z,3.83
2019-03-27T02:27:58.122Z,4.13
2019-03-27T02:30:29.036Z,4.10
2019-03-27T02:32:59.759Z,3.77
2019-03-27T02:35:31.557Z,4.40
2019-03-27T02:38:03.797Z,4.17
2019-03-27T02:40:35.520Z,4.03
2019-03-27T02:43:06.495Z,4.33
2019-03-27T02:45:37.248Z,3.83
2019-03-27T02:48:08.046Z,4.40
2019-03-27T02:50:38.891Z,4.50
2019-03-27T02:53:09.729Z,4.23
2019-03-27T02:55:40.481Z,3.83
2019-03-27T02:58:11.743Z,3.87
2019-03-27T03:00:42.553Z,3.87
2019-03-27T03:03:13.358Z,4.17
2019-03-27T03:05:44.512Z,4.00
2019-03-27T03:08:15.380Z,3.50
2019-03-27T03:10:46.262Z,3.70
2019-03-27T03:13:17.338Z,3.70
2019-03-27T03:15:48.176Z,3.73
2019-03-27T03:19:37.750Z,3.63
2019-03-27T03:22:08.949Z,3.50
2019-03-27T03:24:40.521Z,3.70
2019-03-27T03:27:11.392Z,3.60
2019-03-27T03:29:42.176Z,3.57
2019-03-27T03:32:13.331Z,4.03
2019-03-27T03:34:44.136Z,3.50
2019-03-27T03:37:14.949Z,3.50
2019-03-27T03:39:46.358Z,3.83
2019-03-27T03:42:17.288Z,3.53
2019-03-27T03:44:48.110Z,3.20
2019-03-27T03:47:18.931Z,4.00
2019-03-27T03:49:50.069Z,3.60
2019-03-27T03:52:22.014Z,3.33
2019-03-27T03:54:54.298Z,3.53
2019-03-27T03:57:28.174Z,3.47
2019-03-27T04:00:01.250Z,3.40
2019-03-27T04:02:34.971Z,3.40
2019-03-27T04:05:06.441Z,3.80
2019-03-27T04:07:37.366Z,3.87
2019-03-27T04:10:08.414Z,4.07
2019-03-27T04:12:39.272Z,3.90
2019-03-27T04:15:10.043Z,4.20
2019-03-27T04:17:41.204Z,4.83
2019-03-27T04:20:12.166Z,3.80
2019-03-27T04:22:43.383Z,4.40
2019-03-27T04:25:14.475Z,4.67
2019-03-27T04:27:46.700Z,4.57
2019-03-27T04:30:17.603Z,4.40
2019-03-27T04:32:48.410Z,4.10
2019-03-27T04:35:19.178Z,4.37
2019-03-27T04:37:49.977Z,3.47
2019-03-27T04:40:20.876Z,4.20
2019-03-27T04:42:52.032Z,3.80
2019-03-27T04:45:23.267Z,4.30
2019-03-27T04:47:54.043Z,4.10
2019-03-27T04:50:26.145Z,4.00
2019-03-27T04:52:57.325Z,3.70
2019-03-27T04:55:28.536Z,3.97
2019-03-27T04:57:59.699Z,4.00
2019-03-27T05:00:31.063Z,3.20
2019-03-27T05:03:02.305Z,4.10
2019-03-27T05:05:33.419Z,4.43
2019-03-27T05:08:04.238Z,4.28
2019-03-27T05:10:35.840Z,4.10
2019-03-27T05:13:06.705Z,4.20
2019-03-27T05:15:37.964Z,3.90
2019-03-27T05:18:08.801Z,3.73
2019-03-27T05:20:40.925Z,3.70
2019-03-27T05:23:11.708Z,3.50
2019-03-27T05:25:43.222Z,3.43
2019-03-27T05:28:14.098Z,3.40
2019-03-27T05:30:44.931Z,3.73
2019-03-27T05:33:15.789Z,3.60
2019-03-27T05:35:47.309Z,3.10
2019-03-27T05:38:19.006Z,3.00
2019-03-27T05:40:49.893Z,2.80
2019-03-27T05:43:20.767Z,3.07
2019-03-27T05:45:51.870Z,3.17
2019-03-27T05:48:22.977Z,3.60
2019-03-27T05:50:53.830Z,3.73
2019-03-27T05:53:24.633Z,3.47
2019-03-27T05:55:55.900Z,3.50
2019-03-27T05:58:26.718Z,3.97
2019-03-27T06:00:57.520Z,4.43
2019-03-27T06:03:28.361Z,5.23
2019-03-27T06:05:59.541Z,4.73
2019-03-27T06:08:30.317Z,4.47
2019-03-27T06:11:01.132Z,5.10
2019-03-27T06:13:31.895Z,5.20
2019-03-27T06:16:03.051Z,6.00
2019-03-27T06:18:33.888Z,5.83
2019-03-27T06:21:04.675Z,6.30
2019-03-27T06:23:35.732Z,6.67
2019-03-27T06:26:06.528Z,6.77
2019-03-27T06:28:37.645Z,6.25
2019-03-27T06:31:08.709Z,6.67
2019-03-27T06:33:39.501Z,5.17
2019-03-27T06:36:10.645Z,4.80
2019-03-27T06:38:41.864Z,5.07
2019-03-27T06:41:13.711Z,4.63
2019-03-27T06:43:44.849Z,4.57
2019-03-27T06:46:15.676Z,4.50
2019-03-27T06:48:46.463Z,5.10
2019-03-27T06:51:17.636Z,4.77
2019-03-27T06:53:48.441Z,4.87
2019-03-27T06:56:19.692Z,4.20
2019-03-27T06:58:54.818Z,4.57
2019-03-27T07:01:23.309Z,4.80
2019-03-27T07:03:54.177Z,5.00
2019-03-27T07:06:25.029Z,4.30
2019-03-27T07:08:56.381Z,4.60
2019-03-27T07:11:27.242Z,4.73
2019-03-27T07:13:57.997Z,4.70
2019-03-27T07:16:28.797Z,5.70
2019-03-27T07:18:59.994Z,5.57
2019-03-27T07:21:31.896Z,4.27
2019-03-27T07:24:03.475Z,5.00
2019-03-27T07:26:34.674Z,4.57
2019-03-27T07:29:05.443Z,4.80
2019-03-27T07:31:36.812Z,4.73
2019-03-27T07:34:08.458Z,5.47
2019-03-27T07:36:41.192Z,4.77
2019-03-27T07:39:12.301Z,4.90
2019-03-27T07:41:43.544Z,5.00
2019-03-27T07:44:15.109Z,5.23
2019-03-27T07:46:46.404Z,4.93
2019-03-27T07:49:20.193Z,4.97
2019-03-27T07:51:51.334Z,4.53
2019-03-27T07:54:23.166Z,6.03
2019-03-27T07:56:53.967Z,6.20
2019-03-27T07:59:25.548Z,5.07
2019-03-27T08:01:56.369Z,6.50
2019-03-27T08:04:28.800Z,5.47
2019-03-27T08:06:59.594Z,5.60
2019-03-27T08:09:31.066Z,5.40
2019-03-27T08:12:02.012Z,4.53
2019-03-27T08:14:32.878Z,4.33
2019-03-27T08:17:04.013Z,4.23
2019-03-27T08:19:34.757Z,4.77
2019-03-27T08:22:07.011Z,4.10
2019-03-27T08:24:38.870Z,4.83
2019-03-27T08:27:09.912Z,4.10
2019-03-27T08:29:40.648Z,4.90
2019-03-27T08:32:11.807Z,5.17
2019-03-27T08:34:42.909Z,4.80
2019-03-27T08:37:13.668Z,4.47
2019-03-27T08:39:44.400Z,4.70
2019-03-27T08:42:15.855Z,4.60
2019-03-27T08:44:46.629Z,5.87
2019-03-27T08:47:18.127Z,5.40
2019-03-27T08:49:49.803Z,5.73
2019-03-27T08:52:21.631Z,6.30
2019-03-27T08:54:52.366Z,6.03
2019-03-27T08:57:23.480Z,5.80
2019-03-27T08:59:54.863Z,5.57
2019-03-27T09:02:25.811Z,5.27
2019-03-27T09:04:56.669Z,6.20
2019-03-27T09:07:27.548Z,5.37
2019-03-27T09:09:58.313Z,5.63
2019-03-27T09:12:29.188Z,5.87
2019-03-27T09:15:00.472Z,6.30
2019-03-27T09:17:31.544Z,5.43
2019-03-27T09:20:03.373Z,5.73
2019-03-27T09:22:35.041Z,5.57
2019-03-27T09:25:06.754Z,5.30
2019-03-27T09:27:38.017Z,5.33
2019-03-27T09:30:10.571Z,5.37
2019-03-27T09:32:43.037Z,5.80
2019-03-27T09:35:14.198Z,5.67
2019-03-27T09:37:45.057Z,5.73
2019-03-27T09:40:16.124Z,5.03
2019-03-27T09:42:47.983Z,5.03
2019-03-27T09:45:19.066Z,6.60
2019-03-27T09:47:49.820Z,5.10
2019-03-27T09:50:21.527Z,4.87
2019-03-27T09:52:52.368Z,4.83
2019-03-27T09:55:23.207Z,4.83
2019-03-27T09:57:54.454Z,4.55
2019-03-27T10:01:09.362Z,3.98
2019-03-27T10:03:40.623Z,4.85
2019-03-27T10:06:11.747Z,4.70
2019-03-27T10:08:42.628Z,4.60
2019-03-27T10:11:13.687Z,4.50
2019-03-27T10:13:44.495Z,4.67
2019-03-27T10:16:15.271Z,3.93
2019-03-27T10:18:47.578Z,5.53
2019-03-27T10:21:18.549Z,4.80
2019-03-27T10:23:49.358Z,4.27
2019-03-27T10:26:20.176Z,4.40
2019-03-27T10:28:51.693Z,4.37
2019-03-27T10:31:22.452Z,4.47
2019-03-27T10:33:53.833Z,5.23
2019-03-27T10:36:24.641Z,4.07
2019-03-27T10:38:55.439Z,4.30
2019-03-27T10:41:26.566Z,4.00
2019-03-27T10:43:57.775Z,4.30
2019-03-27T10:46:28.622Z,4.80
2019-03-27T10:48:59.923Z,4.13
2019-03-27T10:51:31.811Z,4.40
2019-03-27T10:54:02.687Z,4.37
2019-03-27T10:56:33.535Z,3.90
2019-03-27T10:59:04.367Z,3.60
2019-03-27T11:01:35.484Z,4.10
2019-03-27T11:04:06.383Z,4.23
2019-03-27T11:06:37.538Z,4.40
2019-03-27T11:09:09.878Z,3.83
2019-03-27T11:11:40.699Z,3.53
2019-03-27T11:14:11.972Z,3.63
2019-03-27T11:16:42.889Z,4.47
2019-03-27T11:19:13.741Z,3.83
2019-03-27T11:21:44.967Z,3.60
2019-03-27T11:24:16.364Z,3.22
2019-03-27T11:26:47.273Z,3.52
2019-03-27T11:29:20.861Z,3.15
2019-03-27T11:31:51.974Z,2.63
2019-03-27T11:34:22.763Z,3.47
2019-03-27T11:36:53.795Z,3.77
2019-03-27T11:39:24.913Z,3.27
2019-03-27T11:41:56.045Z,3.10
2019-03-27T11:44:26.930Z,2.98
2019-03-27T11:46:57.681Z,3.25
2019-03-27T11:49:28.471Z,3.45
2019-03-27T11:51:59.251Z,2.67
2019-03-27T11:54:30.072Z,3.02
2019-03-27T11:57:01.035Z,2.17
2019-03-27T11:59:33.225Z,3.52
2019-03-27T12:02:04.072Z,2.33
2019-03-27T12:04:34.944Z,2.17
2019-03-27T12:07:05.815Z,1.90
2019-03-27T12:09:36.593Z,2.30
2019-03-27T12:12:07.465Z,2.72
2019-03-27T12:14:38.566Z,2.70
2019-03-27T12:17:09.433Z,2.37
2019-03-27T12:19:40.635Z,2.12
2019-03-27T12:22:11.475Z,2.02
2019-03-27T12:24:42.536Z,2.12
2019-03-27T12:27:13.350Z,1.20
2019-03-27T12:29:44.135Z,1.32
2019-03-27T12:32:14.954Z,1.33
2019-03-27T12:34:45.850Z,1.10
2019-03-27T12:37:16.669Z,1.10
2019-03-27T12:39:47.489Z,1.17
2019-03-27T12:42:18.771Z,1.10
2019-03-27T12:44:51.059Z,1.30
2019-03-27T12:47:22.720Z,1.45
2019-03-27T12:49:54.625Z,1.62
2019-03-27T12:52:25.434Z,1.60
2019-03-27T12:54:57.532Z,1.65
2019-03-27T12:57:29.668Z,1.07
2019-03-27T13:00:00.503Z,1.17
2019-03-27T13:02:31.767Z,1.37
2019-03-27T13:05:03.238Z,1.60
2019-03-27T13:07:34.438Z,1.20
2019-03-27T13:10:05.898Z,1.10
2019-03-27T13:12:37.158Z,1.50
2019-03-27T13:15:08.480Z,1.37
2019-03-27T13:17:39.888Z,1.40
2019-03-27T13:20:10.829Z,1.02
2019-03-27T13:22:41.977Z,1.00
2019-03-27T13:25:14.180Z,0.90
2019-03-27T13:27:47.475Z,1.80
2019-03-27T13:30:20.413Z,1.22
2019-03-27T13:32:51.198Z,1.40
2019-03-27T13:35:21.945Z,1.20
2019-03-27T13:37:53.036Z,1.30
2019-03-27T13:40:24.731Z,0.90
2019-03-27T13:42:56.801Z,0.72
2019-03-27T13:45:31.013Z,0.60
2019-03-27T13:48:01.867Z,0.70
2019-03-27T13:50:33.090Z,0.80
2019-03-27T13:53:04.505Z,0.62
2019-03-27T13:55:36.090Z,0.70
2019-03-27T13:58:06.856Z,0.65
2019-03-27T14:00:38.392Z,0.42
2019-03-27T14:03:10.043Z,0.40
2019-03-27T14:05:41.697Z,0.60
2019-03-27T14:08:12.943Z,0.57
2019-03-27T14:10:43.904Z,0.60
2019-03-27T14:13:15.402Z,0.65
2019-03-27T14:15:46.921Z,0.53
2019-03-27T14:18:18.342Z,0.60
2019-03-27T14:20:49.590Z,1.20
2019-03-27T14:23:20.737Z,0.80
2019-03-27T14:25:52.086Z,0.40
2019-03-27T14:28:23.266Z,0.97
2019-03-27T14:30:56.331Z,1.60
2019-03-27T14:33:27.457Z,0.98
2019-03-27T14:35:58.307Z,1.00
2019-03-27T14:38:29.546Z,0.60
2019-03-27T14:41:01.200Z,0.65
2019-03-27T14:43:32.454Z,0.78
2019-03-27T14:46:03.281Z,0.85
2019-03-27T14:48:34.663Z,0.90
2019-03-27T14:51:05.782Z,0.90
2019-03-27T14:53:36.924Z,1.02
2019-03-27T14:56:07.779Z,1.30
2019-03-27T14:58:38.999Z,1.07
2019-03-27T15:01:09.875Z,1.20
2019-03-27T15:03:40.686Z,1.30
2019-03-27T15:06:11.537Z,1.02
2019-03-27T15:08:43.169Z,1.00
2019-03-27T15:11:14.303Z,1.02
2019-03-27T15:13:45.149Z,0.90
2019-03-27T15:16:16.405Z,0.90
2019-03-27T15:18:47.706Z,1.05
2019-03-27T15:21:19.194Z,0.62
2019-03-27T15:23:49.951Z,0.80
2019-03-27T15:26:26.715Z,0.90
2019-03-27T15:28:57.584Z,0.80
2019-03-27T15:31:29.730Z,0.90
2019-03-27T15:34:00.556Z,0.80
2019-03-27T15:36:31.448Z,1.20
2019-03-27T15:39:04.468Z,1.25
2019-03-27T15:41:36.032Z,1.72
2019-03-27T15:44:07.009Z,1.93
2019-03-27T15:46:39.248Z,1.75
2019-03-27T15:49:10.097Z,1.65
2019-03-27T15:51:41.213Z,1.50
2019-03-27T15:54:13.398Z,1.35
2019-03-27T15:56:44.484Z,2.00
2019-03-27T15:59:15.369Z,1.60
2019-03-27T16:01:46.682Z,1.50
2019-03-27T16:04:17.481Z,1.63
2019-03-27T16:06:48.289Z,1.67
2019-03-27T16:09:19.511Z,2.22
2019-03-27T16:11:51.095Z,2.20
2019-03-27T16:14:22.236Z,2.23
2019-03-27T16:17:12.063Z,2.13
2019-03-27T16:19:27.493Z,1.90
2019-03-27T16:21:59.151Z,2.30
2019-03-27T16:24:30.089Z,1.90
2019-03-27T16:27:04.709Z,2.30
2019-03-27T16:29:34.018Z,1.70
2019-03-27T16:32:05.569Z,1.77
2019-03-27T16:34:36.823Z,2.17
2019-03-27T16:37:08.178Z,2.00
2019-03-27T16:39:38.896Z,2.50
2019-03-27T16:42:10.238Z,1.63
2019-03-27T16:44:40.985Z,1.87
2019-03-27T16:47:12.089Z,2.13
2019-03-27T16:49:42.853Z,2.10
2019-03-27T16:52:13.724Z,1.93
2019-03-27T16:54:44.913Z,2.13
2019-03-27T16:57:16.160Z,1.80
2019-03-27T16:59:46.925Z,1.80
2019-03-27T17:02:18.582Z,2.50
2019-03-27T17:04:49.319Z,2.93
2019-03-27T17:07:20.215Z,2.70
2019-03-27T17:09:50.997Z,2.47
2019-03-27T17:12:21.874Z,2.03
2019-03-27T17:14:52.672Z,2.10
2019-03-27T17:17:23.504Z,2.23
2019-03-27T17:19:55.257Z,2.17
2019-03-27T17:22:26.116Z,1.80
2019-03-27T17:24:56.951Z,2.03
2019-03-27T17:27:27.788Z,2.63
2019-03-27T17:29:58.627Z,1.90
2019-03-27T17:32:30.495Z,1.90
2019-03-27T17:35:01.326Z,2.47
2019-03-27T17:37:32.272Z,2.27
2019-03-27T17:40:03.350Z,2.70
2019-03-27T17:42:34.132Z,1.93
2019-03-27T17:45:05.136Z,2.60
2019-03-27T17:47:36.407Z,2.13
2019-03-27T17:50:07.664Z,2.13
2019-03-27T17:52:38.706Z,2.23
2019-03-27T17:55:09.868Z,2.23
2019-03-27T17:57:40.743Z,2.37
2019-03-27T18:00:14.330Z,2.73
2019-03-27T18:02:45.117Z,3.07
2019-03-27T18:05:16.467Z,2.83
2019-03-27T18:07:47.326Z,3.03
2019-03-27T18:10:18.154Z,2.57
2019-03-27T18:12:48.987Z,2.60
2019-03-27T18:15:21.249Z,3.40
2019-03-27T18:17:52.087Z,2.70
2019-03-27T18:20:22.839Z,3.00
2019-03-27T18:22:54.461Z,2.83
2019-03-27T18:25:25.580Z,3.40
2019-03-27T18:27:58.494Z,3.00
2019-03-27T18:30:28.950Z,3.00
2019-03-27T18:32:59.763Z,3.03
2019-03-27T18:35:31.242Z,2.93
2019-03-27T18:38:02.070Z,2.53
2019-03-27T18:40:33.681Z,2.73
2019-03-27T18:43:04.445Z,2.27
2019-03-27T18:45:35.625Z,2.40
2019-03-27T18:48:06.461Z,2.23
2019-03-27T18:50:37.328Z,2.27
2019-03-27T18:53:08.167Z,2.47
2019-03-27T18:55:39.413Z,2.40
2019-03-27T18:58:10.319Z,2.37
2019-03-27T19:00:41.440Z,2.50
2019-03-27T19:03:12.574Z,2.80
2019-03-27T19:05:44.113Z,2.60
2019-03-27T19:08:15.007Z,2.73
2019-03-27T19:10:46.620Z,2.60
2019-03-27T19:13:18.290Z,2.60
2019-03-27T19:15:49.336Z,3.00
2019-03-27T19:18:21.492Z,3.10
2019-03-27T19:20:52.602Z,2.80
2019-03-27T19:23:23.418Z,2.87
2019-03-27T19:25:54.332Z,2.53
2019-03-27T19:28:25.136Z,2.90
2019-03-27T19:30:56.153Z,2.67
2019-03-27T19:33:27.008Z,3.00
2019-03-27T19:35:58.276Z,2.43
2019-03-27T19:38:29.769Z,2.63
2019-03-27T19:41:00.593Z,2.27
2019-03-27T19:43:32.751Z,2.60
2019-03-27T19:46:03.570Z,2.47
2019-03-27T19:48:35.034Z,2.63
2019-03-27T19:51:06.379Z,2.87
2019-03-27T19:53:37.315Z,2.80
2019-03-27T19:56:08.443Z,2.50
2019-03-27T19:58:39.298Z,2.50
2019-03-27T20:01:10.477Z,2.83
2019-03-27T20:03:41.287Z,2.73
2019-03-27T20:06:12.255Z,3.37
2019-03-27T20:08:43.536Z,3.03
2019-03-27T20:11:14.327Z,3.10
2019-03-27T20:13:45.533Z,2.97
2019-03-27T20:16:16.322Z,2.80
2019-03-27T20:18:47.533Z,3.10
2019-03-27T20:21:18.729Z,2.80
2019-03-27T20:23:50.854Z,2.70
2019-03-27T20:26:21.661Z,2.80
2019-03-27T20:28:52.544Z,2.67
2019-03-27T20:31:23.765Z,2.50
2019-03-27T20:33:54.618Z,2.70
2019-03-27T20:36:25.833Z,3.13
2019-03-27T20:39:01.745Z,2.43
2019-03-27T20:41:34.908Z,2.70
2019-03-27T20:44:05.741Z,2.80
2019-03-27T20:46:36.626Z,2.60
2019-03-27T20:49:07.451Z,3.27
2019-03-27T20:51:40.625Z,2.77
2019-03-27T20:54:12.144Z,2.53
2019-03-27T20:56:43.427Z,2.63
2019-03-27T20:59:18.119Z,3.00
2019-03-27T21:01:47.963Z,3.20
2019-03-27T21:04:19.174Z,2.83
2019-03-27T21:06:50.080Z,2.27
2019-03-27T21:09:21.564Z,3.00
2019-03-27T21:11:56.011Z,2.73
2019-03-27T21:14:26.012Z,3.30
2019-03-27T21:16:57.301Z,2.27
2019-03-27T21:19:28.589Z,2.67
2019-03-27T21:22:00.077Z,2.67
2019-03-27T21:24:31.026Z,2.70
2019-03-27T21:27:02.093Z,3.13
2019-03-27T21:29:33.407Z,3.03
2019-03-27T21:32:04.217Z,3.10
2019-03-27T21:34:34.942Z,2.87
2019-03-27T21:37:05.784Z,3.10
2019-03-27T21:39:36.695Z,2.53
2019-03-27T21:42:07.793Z,2.90
2019-03-27T21:44:38.539Z,3.17
2019-03-27T21:47:10.201Z,3.30
2019-03-27T21:49:40.978Z,3.17
2019-03-27T21:52:12.115Z,3.50
2019-03-27T21:54:42.987Z,3.60
2019-03-27T21:57:14.154Z,4.10
2019-03-27T21:59:45.380Z,4.20
2019-03-27T22:02:17.151Z,4.53
2019-03-27T22:04:47.944Z,3.93
2019-03-27T22:07:19.453Z,4.37
2019-03-27T22:09:50.555Z,4.07
2019-03-27T22:12:21.688Z,4.07
2019-03-27T22:14:52.840Z,4.00
2019-03-27T22:17:23.614Z,3.93
2019-03-27T22:19:55.182Z,3.77
2019-03-27T22:22:26.437Z,3.90
2019-03-27T22:24:57.897Z,3.87
2019-03-27T22:27:28.695Z,3.97
2019-03-27T22:29:59.483Z,3.60
2019-03-27T22:32:30.264Z,3.25
2019-03-27T22:35:01.404Z,3.53
2019-03-27T22:37:32.243Z,4.13
2019-03-27T22:40:03.037Z,3.10
2019-03-27T22:42:33.816Z,3.77
2019-03-27T22:45:04.954Z,3.33
2019-03-27T22:47:36.262Z,4.00
2019-03-27T22:50:08.358Z,3.70
2019-03-27T22:52:39.700Z,3.87
2019-03-27T22:55:10.510Z,3.70
2019-03-27T22:57:41.269Z,3.30
2019-03-27T23:00:13.408Z,2.87
2019-03-27T23:02:45.789Z,3.00
2019-03-27T23:05:16.532Z,3.50
2019-03-27T23:07:47.379Z,3.07
2019-03-27T23:10:18.197Z,3.83
2019-03-27T23:12:49.567Z,3.40
2019-03-27T23:15:20.311Z,3.60
2019-03-27T23:17:51.155Z,3.53
2019-03-27T23:20:21.968Z,3.90
2019-03-27T23:22:52.725Z,4.30
2019-03-27T23:25:23.459Z,4.90
2019-03-27T23:27:54.593Z,4.50
2019-03-27T23:30:25.594Z,4.20
2019-03-27T23:32:56.700Z,5.07
2019-03-27T23:35:27.449Z,4.17
2019-03-27T23:37:58.861Z,4.60
2019-03-27T23:40:29.899Z,4.50
2019-03-27T23:43:00.682Z,4.63
2019-03-27T23:45:31.751Z,4.50
2019-03-27T23:48:03.249Z,4.87
2019-03-27T23:50:34.273Z,4.57
2019-03-27T23:53:05.026Z,4.67
2019-03-27T23:55:35.758Z,4.43
2019-03-27T23:58:06.584Z,4.17
